Terminal Aerodrome Forecast
Issued by NWS

Current Version | Previous Version | Text Only | Print | Product List | Glossary On
Versions: 1 2 3 4 5 6 7 8 9 10 11 12 13 14 15 16 17 18 19 20 21
948
FTUS43 KOAX 271720
TAFSNY
TAF
KSNY 271720Z 2718/2818 25005KT P6SM BKN250
     FM272100 15010KT P6SM SKC
     FM280900 22006KT P6SM BKN200=

USA.gov is the U.S. government's official web portal to all federal, state and local government web resources and services.